sensor_id;sensor_type;location;lat;lon;timestamp;P1;durP1;ratioP1;P2;durP2;ratioP2
54921;SDS011;40824;45.116;21.296;2022-11-20T00:00:05;6.57;;;3.58;;
54921;SDS011;40824;45.116;21.296;2022-11-20T00:02:32;6.43;;;3.80;;
54921;SDS011;40824;45.116;21.296;2022-11-20T00:04:58;6.25;;;3.90;;
54921;SDS011;40824;45.116;21.296;2022-11-20T00:07:24;5.85;;;4.50;;
54921;SDS011;40824;45.116;21.296;2022-11-20T00:09:50;8.52;;;5.20;;
54921;SDS011;40824;45.116;21.296;2022-11-20T00:12:16;9.82;;;6.03;;
54921;SDS011;40824;45.116;21.296;2022-11-20T00:14:42;10.35;;;6.20;;
54921;SDS011;40824;45.116;21.296;2022-11-20T00:17:08;9.27;;;6.13;;
54921;SDS011;40824;45.116;21.296;2022-11-20T00:19:34;8.82;;;6.28;;
54921;SDS011;40824;45.116;21.296;2022-11-20T00:22:00;8.32;;;4.65;;
54921;SDS011;40824;45.116;21.296;2022-11-20T00:24:26;6.43;;;4.25;;
54921;SDS011;40824;45.116;21.296;2022-11-20T00:26:52;9.23;;;3.80;;
54921;SDS011;40824;45.116;21.296;2022-11-20T00:29:19;6.13;;;3.78;;
54921;SDS011;40824;45.116;21.296;2022-11-20T00:31:45;4.90;;;3.10;;
54921;SDS011;40824;45.116;21.296;2022-11-20T00:34:11;4.05;;;2.88;;
54921;SDS011;40824;45.116;21.296;2022-11-20T00:36:37;4.60;;;2.63;;
54921;SDS011;40824;45.116;21.296;2022-11-20T00:39:03;5.68;;;3.42;;
54921;SDS011;40824;45.116;21.296;2022-11-20T00:41:29;4.95;;;3.28;;
54921;SDS011;40824;45.116;21.296;2022-11-20T00:43:56;5.40;;;3.42;;
54921;SDS011;40824;45.116;21.296;2022-11-20T00:46:23;5.97;;;3.40;;
54921;SDS011;40824;45.116;21.296;2022-11-20T00:48:49;9.30;;;4.20;;
54921;SDS011;40824;45.116;21.296;2022-11-20T00:51:17;7.10;;;4.35;;
54921;SDS011;40824;45.116;21.296;2022-11-20T00:53:43;7.25;;;4.60;;
54921;SDS011;40824;45.116;21.296;2022-11-20T00:56:11;6.07;;;4.22;;
54921;SDS011;40824;45.116;21.296;2022-11-20T00:58:38;8.98;;;4.40;;
54921;SDS011;40824;45.116;21.296;2022-11-20T01:01:05;5.78;;;4.00;;
54921;SDS011;40824;45.116;21.296;2022-11-20T01:03:32;5.82;;;3.90;;
54921;SDS011;40824;45.116;21.296;2022-11-20T01:05:59;6.80;;;4.07;;
54921;SDS011;40824;45.116;21.296;2022-11-20T01:08:28;6.07;;;3.53;;
54921;SDS011;40824;45.116;21.296;2022-11-20T01:11:00;3.45;;;2.60;;
54921;SDS011;40824;45.116;21.296;2022-11-20T01:13:27;4.80;;;2.70;;
54921;SDS011;40824;45.116;21.296;2022-11-20T01:16:12;4.25;;;2.97;;
54921;SDS011;40824;45.116;21.296;2022-11-20T01:18:40;6.95;;;3.90;;
54921;SDS011;40824;45.116;21.296;2022-11-20T01:21:07;6.13;;;4.25;;
54921;SDS011;40824;45.116;21.296;2022-11-20T01:23:35;5.55;;;3.40;;
54921;SDS011;40824;45.116;21.296;2022-11-20T01:26:05;5.05;;;3.47;;
54921;SDS011;40824;45.116;21.296;2022-11-20T01:28:32;5.57;;;3.08;;
54921;SDS011;40824;45.116;21.296;2022-11-20T01:30:58;4.80;;;3.35;;
54921;SDS011;40824;45.116;21.296;2022-11-20T01:33:25;5.57;;;2.83;;
54921;SDS011;40824;45.116;21.296;2022-11-20T01:35:51;7.35;;;4.28;;
54921;SDS011;40824;45.116;21.296;2022-11-20T01:38:17;6.90;;;4.28;;
54921;SDS011;40824;45.116;21.296;2022-11-20T01:40:54;4.55;;;3.00;;
54921;SDS011;40824;45.116;21.296;2022-11-20T01:43:20;5.15;;;3.88;;
54921;SDS011;40824;45.116;21.296;2022-11-20T01:45:53;4.18;;;3.08;;
54921;SDS011;40824;45.116;21.296;2022-11-20T01:48:22;3.85;;;2.83;;
54921;SDS011;40824;45.116;21.296;2022-11-20T01:50:49;3.75;;;2.50;;
54921;SDS011;40824;45.116;21.296;2022-11-20T01:53:16;3.75;;;2.25;;
54921;SDS011;40824;45.116;21.296;2022-11-20T01:55:49;4.95;;;2.80;;
54921;SDS011;40824;45.116;21.296;2022-11-20T01:58:18;3.88;;;2.40;;
54921;SDS011;40824;45.116;21.296;2022-11-20T02:00:46;3.17;;;2.20;;
54921;SDS011;40824;45.116;21.296;2022-11-20T02:03:12;5.32;;;3.22;;
54921;SDS011;40824;45.116;21.296;2022-11-20T02:05:51;4.85;;;2.83;;
54921;SDS011;40824;45.116;21.296;2022-11-20T02:08:17;3.88;;;2.30;;
54921;SDS011;40824;45.116;21.296;2022-11-20T02:10:43;3.38;;;2.30;;
54921;SDS011;40824;45.116;21.296;2022-11-20T02:13:10;3.80;;;2.70;;
54921;SDS011;40824;45.116;21.296;2022-11-20T02:15:54;3.50;;;2.08;;
54921;SDS011;40824;45.116;21.296;2022-11-20T02:18:21;2.90;;;2.20;;
54921;SDS011;40824;45.116;21.296;2022-11-20T02:20:52;3.10;;;2.33;;
54921;SDS011;40824;45.116;21.296;2022-11-20T02:25:45;4.78;;;2.60;;
54921;SDS011;40824;45.116;21.296;2022-11-20T02:28:12;3.30;;;2.20;;
54921;SDS011;40824;45.116;21.296;2022-11-20T02:30:38;3.03;;;2.20;;
54921;SDS011;40824;45.116;21.296;2022-11-20T02:33:04;4.38;;;2.05;;
54921;SDS011;40824;45.116;21.296;2022-11-20T02:37:57;4.28;;;2.70;;
54921;SDS011;40824;45.116;21.296;2022-11-20T02:40:25;3.40;;;2.63;;
54921;SDS011;40824;45.116;21.296;2022-11-20T02:42:51;3.33;;;1.85;;
54921;SDS011;40824;45.116;21.296;2022-11-20T02:45:18;2.70;;;1.77;;
54921;SDS011;40824;45.116;21.296;2022-11-20T02:47:44;5.13;;;1.83;;
54921;SDS011;40824;45.116;21.296;2022-11-20T02:50:10;2.30;;;1.70;;
54921;SDS011;40824;45.116;21.296;2022-11-20T02:52:36;3.45;;;1.80;;
54921;SDS011;40824;45.116;21.296;2022-11-20T02:55:02;3.40;;;1.95;;
54921;SDS011;40824;45.116;21.296;2022-11-20T02:57:29;3.40;;;2.08;;
54921;SDS011;40824;45.116;21.296;2022-11-20T02:59:55;6.93;;;2.17;;
54921;SDS011;40824;45.116;21.296;2022-11-20T03:02:21;3.65;;;1.95;;
54921;SDS011;40824;45.116;21.296;2022-11-20T03:04:47;3.00;;;1.77;;
54921;SDS011;40824;45.116;21.296;2022-11-20T03:07:13;2.95;;;2.05;;
54921;SDS011;40824;45.116;21.296;2022-11-20T03:09:40;3.45;;;2.30;;
54921;SDS011;40824;45.116;21.296;2022-11-20T03:12:06;3.28;;;2.08;;
54921;SDS011;40824;45.116;21.296;2022-11-20T03:14:32;3.60;;;2.20;;
54921;SDS011;40824;45.116;21.296;2022-11-20T03:17:01;3.65;;;2.05;;
54921;SDS011;40824;45.116;21.296;2022-11-20T03:19:27;3.67;;;2.30;;
54921;SDS011;40824;45.116;21.296;2022-11-20T03:21:53;3.50;;;2.40;;
54921;SDS011;40824;45.116;21.296;2022-11-20T03:24:19;5.05;;;3.00;;
54921;SDS011;40824;45.116;21.296;2022-11-20T03:26:45;4.10;;;2.97;;
54921;SDS011;40824;45.116;21.296;2022-11-20T03:29:11;4.68;;;3.60;;
54921;SDS011;40824;45.116;21.296;2022-11-20T03:31:38;5.57;;;3.75;;
54921;SDS011;40824;45.116;21.296;2022-11-20T03:34:06;6.32;;;4.43;;
54921;SDS011;40824;45.116;21.296;2022-11-20T03:36:32;7.03;;;4.65;;
54921;SDS011;40824;45.116;21.296;2022-11-20T03:38:58;7.45;;;5.85;;
54921;SDS011;40824;45.116;21.296;2022-11-20T03:41:28;11.93;;;5.22;;
54921;SDS011;40824;45.116;21.296;2022-11-20T03:43:56;6.47;;;5.05;;
54921;SDS011;40824;45.116;21.296;2022-11-20T03:46:22;7.20;;;5.65;;
54921;SDS011;40824;45.116;21.296;2022-11-20T03:48:48;6.57;;;5.72;;
54921;SDS011;40824;45.116;21.296;2022-11-20T03:51:24;8.20;;;5.60;;
54921;SDS011;40824;45.116;21.296;2022-11-20T03:53:52;6.47;;;4.50;;
54921;SDS011;40824;45.116;21.296;2022-11-20T03:56:19;5.65;;;4.75;;
54921;SDS011;40824;45.116;21.296;2022-11-20T03:58:46;6.65;;;4.53;;
54921;SDS011;40824;45.116;21.296;2022-11-20T04:01:13;6.10;;;4.70;;
54921;SDS011;40824;45.116;21.296;2022-11-20T04:03:40;6.57;;;4.75;;
54921;SDS011;40824;45.116;21.296;2022-11-20T04:06:07;8.63;;;5.10;;
54921;SDS011;40824;45.116;21.296;2022-11-20T04:08:34;9.90;;;5.38;;
54921;SDS011;40824;45.116;21.296;2022-11-20T04:11:10;6.95;;;5.82;;
54921;SDS011;40824;45.116;21.296;2022-11-20T04:13:37;6.72;;;5.70;;
54921;SDS011;40824;45.116;21.296;2022-11-20T04:16:03;7.93;;;5.93;;
54921;SDS011;40824;45.116;21.296;2022-11-20T04:18:29;7.57;;;5.38;;
54921;SDS011;40824;45.116;21.296;2022-11-20T04:20:56;7.53;;;5.07;;
54921;SDS011;40824;45.116;21.296;2022-11-20T04:23:22;6.63;;;5.32;;
54921;SDS011;40824;45.116;21.296;2022-11-20T04:25:48;7.13;;;5.22;;
54921;SDS011;40824;45.116;21.296;2022-11-20T04:28:15;7.97;;;5.95;;
54921;SDS011;40824;45.116;21.296;2022-11-20T04:30:41;7.60;;;6.32;;
54921;SDS011;40824;45.116;21.296;2022-11-20T04:33:07;7.90;;;6.20;;
54921;SDS011;40824;45.116;21.296;2022-11-20T04:35:33;7.75;;;6.03;;
54921;SDS011;40824;45.116;21.296;2022-11-20T04:37:59;10.18;;;6.10;;
54921;SDS011;40824;45.116;21.296;2022-11-20T04:40:27;7.38;;;6.00;;
54921;SDS011;40824;45.116;21.296;2022-11-20T04:42:53;8.80;;;6.45;;
54921;SDS011;40824;45.116;21.296;2022-11-20T04:45:19;7.97;;;6.45;;
54921;SDS011;40824;45.116;21.296;2022-11-20T04:47:45;7.22;;;5.88;;
54921;SDS011;40824;45.116;21.296;2022-11-20T04:50:12;7.15;;;5.72;;
54921;SDS011;40824;45.116;21.296;2022-11-20T04:52:38;10.73;;;8.32;;
54921;SDS011;40824;45.116;21.296;2022-11-20T04:55:04;10.35;;;7.80;;
54921;SDS011;40824;45.116;21.296;2022-11-20T04:57:30;10.35;;;7.28;;
54921;SDS011;40824;45.116;21.296;2022-11-20T04:59:56;8.90;;;7.00;;
54921;SDS011;40824;45.116;21.296;2022-11-20T05:02:22;8.70;;;6.47;;
54921;SDS011;40824;45.116;21.296;2022-11-20T05:04:48;8.30;;;6.70;;
54921;SDS011;40824;45.116;21.296;2022-11-20T05:07:15;23.33;;;6.90;;
54921;SDS011;40824;45.116;21.296;2022-11-20T05:09:41;8.07;;;7.07;;
54921;SDS011;40824;45.116;21.296;2022-11-20T05:12:08;9.82;;;8.45;;
54921;SDS011;40824;45.116;21.296;2022-11-20T05:14:34;10.02;;;7.60;;
54921;SDS011;40824;45.116;21.296;2022-11-20T05:17:00;8.25;;;6.85;;
54921;SDS011;40824;45.116;21.296;2022-11-20T05:19:26;8.20;;;6.22;;
54921;SDS011;40824;45.116;21.296;2022-11-20T05:21:52;7.78;;;6.22;;
54921;SDS011;40824;45.116;21.296;2022-11-20T05:24:18;7.63;;;6.22;;
54921;SDS011;40824;45.116;21.296;2022-11-20T05:26:45;9.77;;;6.50;;
54921;SDS011;40824;45.116;21.296;2022-11-20T05:29:11;6.70;;;5.45;;
54921;SDS011;40824;45.116;21.296;2022-11-20T05:31:38;7.68;;;6.50;;
54921;SDS011;40824;45.116;21.296;2022-11-20T05:34:04;7.65;;;6.55;;
54921;SDS011;40824;45.116;21.296;2022-11-20T05:36:30;7.15;;;6.45;;
54921;SDS011;40824;45.116;21.296;2022-11-20T05:38:56;6.97;;;5.63;;
54921;SDS011;40824;45.116;21.296;2022-11-20T05:41:22;8.75;;;5.88;;
54921;SDS011;40824;45.116;21.296;2022-11-20T05:43:49;8.57;;;6.18;;
54921;SDS011;40824;45.116;21.296;2022-11-20T05:46:16;8.52;;;6.55;;
54921;SDS011;40824;45.116;21.296;2022-11-20T05:48:43;7.28;;;6.22;;
54921;SDS011;40824;45.116;21.296;2022-11-20T05:51:10;10.63;;;7.40;;
54921;SDS011;40824;45.116;21.296;2022-11-20T05:53:37;10.25;;;7.93;;
54921;SDS011;40824;45.116;21.296;2022-11-20T05:58:32;7.32;;;5.63;;
54921;SDS011;40824;45.116;21.296;2022-11-20T06:01:09;6.30;;;5.15;;
54921;SDS011;40824;45.116;21.296;2022-11-20T06:03:35;7.30;;;5.00;;
54921;SDS011;40824;45.116;21.296;2022-11-20T06:06:02;7.28;;;5.05;;
54921;SDS011;40824;45.116;21.296;2022-11-20T06:08:29;6.85;;;5.15;;
54921;SDS011;40824;45.116;21.296;2022-11-20T06:10:55;6.80;;;4.93;;
54921;SDS011;40824;45.116;21.296;2022-11-20T06:13:22;6.82;;;5.57;;
54921;SDS011;40824;45.116;21.296;2022-11-20T06:15:49;7.30;;;5.65;;
54921;SDS011;40824;45.116;21.296;2022-11-20T06:18:15;6.68;;;4.97;;
54921;SDS011;40824;45.116;21.296;2022-11-20T06:20:41;7.03;;;5.45;;
54921;SDS011;40824;45.116;21.296;2022-11-20T06:23:07;6.85;;;5.55;;
54921;SDS011;40824;45.116;21.296;2022-11-20T06:25:36;7.97;;;5.65;;
54921;SDS011;40824;45.116;21.296;2022-11-20T06:28:02;7.25;;;6.07;;
54921;SDS011;40824;45.116;21.296;2022-11-20T06:30:29;8.52;;;6.65;;
54921;SDS011;40824;45.116;21.296;2022-11-20T06:32:55;6.22;;;5.55;;
54921;SDS011;40824;45.116;21.296;2022-11-20T06:35:21;7.53;;;5.68;;
54921;SDS011;40824;45.116;21.296;2022-11-20T06:37:47;5.97;;;5.32;;
54921;SDS011;40824;45.116;21.296;2022-11-20T06:40:13;6.25;;;5.15;;
54921;SDS011;40824;45.116;21.296;2022-11-20T06:42:39;7.18;;;5.68;;
54921;SDS011;40824;45.116;21.296;2022-11-20T06:45:05;8.15;;;6.03;;
54921;SDS011;40824;45.116;21.296;2022-11-20T06:47:32;6.65;;;5.95;;
54921;SDS011;40824;45.116;21.296;2022-11-20T06:49:58;7.18;;;5.80;;
54921;SDS011;40824;45.116;21.296;2022-11-20T06:52:24;7.70;;;6.30;;
54921;SDS011;40824;45.116;21.296;2022-11-20T06:54:50;8.68;;;6.55;;
54921;SDS011;40824;45.116;21.296;2022-11-20T06:57:16;7.00;;;6.30;;
54921;SDS011;40824;45.116;21.296;2022-11-20T06:59:42;8.20;;;6.55;;
54921;SDS011;40824;45.116;21.296;2022-11-20T07:02:12;6.32;;;5.72;;
54921;SDS011;40824;45.116;21.296;2022-11-20T07:04:38;8.73;;;6.00;;
54921;SDS011;40824;45.116;21.296;2022-11-20T07:07:04;6.93;;;5.63;;
54921;SDS011;40824;45.116;21.296;2022-11-20T07:09:31;6.57;;;5.75;;
54921;SDS011;40824;45.116;21.296;2022-11-20T07:11:58;7.85;;;5.95;;
54921;SDS011;40824;45.116;21.296;2022-11-20T07:14:25;8.18;;;5.68;;
54921;SDS011;40824;45.116;21.296;2022-11-20T07:16:51;7.05;;;6.35;;
54921;SDS011;40824;45.116;21.296;2022-11-20T07:19:17;8.80;;;7.07;;
54921;SDS011;40824;45.116;21.296;2022-11-20T07:21:43;9.93;;;6.60;;
54921;SDS011;40824;45.116;21.296;2022-11-20T07:24:09;7.68;;;6.13;;
54921;SDS011;40824;45.116;21.296;2022-11-20T07:26:35;7.90;;;5.93;;
54921;SDS011;40824;45.116;21.296;2022-11-20T07:29:02;6.78;;;5.97;;
54921;SDS011;40824;45.116;21.296;2022-11-20T07:31:28;7.68;;;5.75;;
54921;SDS011;40824;45.116;21.296;2022-11-20T07:33:54;8.27;;;6.10;;
54921;SDS011;40824;45.116;21.296;2022-11-20T07:36:20;6.68;;;5.35;;
54921;SDS011;40824;45.116;21.296;2022-11-20T07:38:46;8.80;;;6.30;;
54921;SDS011;40824;45.116;21.296;2022-11-20T07:41:12;9.55;;;6.82;;
54921;SDS011;40824;45.116;21.296;2022-11-20T07:43:38;7.72;;;6.50;;
54921;SDS011;40824;45.116;21.296;2022-11-20T07:46:04;9.20;;;6.93;;
54921;SDS011;40824;45.116;21.296;2022-11-20T07:48:31;7.93;;;6.55;;
54921;SDS011;40824;45.116;21.296;2022-11-20T07:50:57;5.88;;;5.10;;
54921;SDS011;40824;45.116;21.296;2022-11-20T07:53:23;10.02;;;6.55;;
54921;SDS011;40824;45.116;21.296;2022-11-20T07:55:49;9.50;;;7.78;;
54921;SDS011;40824;45.116;21.296;2022-11-20T07:58:19;11.10;;;8.88;;
54921;SDS011;40824;45.116;21.296;2022-11-20T08:00:48;15.57;;;11.38;;
54921;SDS011;40824;45.116;21.296;2022-11-20T08:03:14;8.77;;;7.22;;
54921;SDS011;40824;45.116;21.296;2022-11-20T08:05:40;8.63;;;6.47;;
54921;SDS011;40824;45.116;21.296;2022-11-20T08:08:06;8.68;;;7.22;;
54921;SDS011;40824;45.116;21.296;2022-11-20T08:10:32;8.23;;;6.03;;
54921;SDS011;40824;45.116;21.296;2022-11-20T08:12:59;6.45;;;5.38;;
54921;SDS011;40824;45.116;21.296;2022-11-20T08:15:47;7.07;;;5.60;;
54921;SDS011;40824;45.116;21.296;2022-11-20T08:18:13;7.00;;;5.68;;
54921;SDS011;40824;45.116;21.296;2022-11-20T08:20:39;10.35;;;6.10;;
54921;SDS011;40824;45.116;21.296;2022-11-20T08:23:06;14.57;;;7.85;;
54921;SDS011;40824;45.116;21.296;2022-11-20T08:25:36;12.60;;;8.05;;
54921;SDS011;40824;45.116;21.296;2022-11-20T08:28:04;13.93;;;9.10;;
54921;SDS011;40824;45.116;21.296;2022-11-20T08:30:30;14.35;;;8.23;;
54921;SDS011;40824;45.116;21.296;2022-11-20T08:33:01;12.77;;;7.45;;
54921;SDS011;40824;45.116;21.296;2022-11-20T08:35:27;12.75;;;8.15;;
54921;SDS011;40824;45.116;21.296;2022-11-20T08:37:53;9.77;;;6.43;;
54921;SDS011;40824;45.116;21.296;2022-11-20T08:40:19;11.73;;;7.50;;
54921;SDS011;40824;45.116;21.296;2022-11-20T08:42:48;10.70;;;6.55;;
54921;SDS011;40824;45.116;21.296;2022-11-20T08:45:15;8.80;;;6.53;;
54921;SDS011;40824;45.116;21.296;2022-11-20T08:47:42;12.88;;;9.65;;
54921;SDS011;40824;45.116;21.296;2022-11-20T08:50:09;20.33;;;18.10;;
54921;SDS011;40824;45.116;21.296;2022-11-20T08:52:35;37.22;;;28.63;;
54921;SDS011;40824;45.116;21.296;2022-11-20T08:55:02;20.75;;;18.55;;
54921;SDS011;40824;45.116;21.296;2022-11-20T08:57:28;15.70;;;14.10;;
54921;SDS011;40824;45.116;21.296;2022-11-20T08:59:56;9.57;;;8.27;;
54921;SDS011;40824;45.116;21.296;2022-11-20T09:02:22;8.35;;;7.25;;
54921;SDS011;40824;45.116;21.296;2022-11-20T09:04:48;9.07;;;6.60;;
54921;SDS011;40824;45.116;21.296;2022-11-20T09:07:15;8.18;;;6.03;;
54921;SDS011;40824;45.116;21.296;2022-11-20T09:09:41;9.95;;;6.40;;
54921;SDS011;40824;45.116;21.296;2022-11-20T09:12:07;10.32;;;8.85;;
54921;SDS011;40824;45.116;21.296;2022-11-20T09:14:33;14.63;;;11.85;;
54921;SDS011;40824;45.116;21.296;2022-11-20T09:16:59;11.35;;;9.50;;
54921;SDS011;40824;45.116;21.296;2022-11-20T09:19:25;9.05;;;6.60;;
54921;SDS011;40824;45.116;21.296;2022-11-20T09:21:51;6.25;;;4.95;;
54921;SDS011;40824;45.116;21.296;2022-11-20T09:24:17;5.43;;;4.28;;
54921;SDS011;40824;45.116;21.296;2022-11-20T09:26:45;6.28;;;5.55;;
54921;SDS011;40824;45.116;21.296;2022-11-20T09:29:11;6.57;;;5.88;;
54921;SDS011;40824;45.116;21.296;2022-11-20T09:31:37;12.25;;;7.75;;
54921;SDS011;40824;45.116;21.296;2022-11-20T09:34:04;8.63;;;6.60;;
54921;SDS011;40824;45.116;21.296;2022-11-20T09:36:30;7.32;;;4.82;;
54921;SDS011;40824;45.116;21.296;2022-11-20T09:38:56;8.35;;;5.50;;
54921;SDS011;40824;45.116;21.296;2022-11-20T09:49:18;5.68;;;4.82;;
54921;SDS011;40824;45.116;21.296;2022-11-20T09:54:17;7.35;;;5.05;;
54921;SDS011;40824;45.116;21.296;2022-11-20T09:56:49;20.38;;;11.45;;
54921;SDS011;40824;45.116;21.296;2022-11-20T09:59:22;15.70;;;9.07;;
54921;SDS011;40824;45.116;21.296;2022-11-20T10:04:16;15.35;;;8.85;;
54921;SDS011;40824;45.116;21.296;2022-11-20T10:06:52;13.88;;;8.80;;
54921;SDS011;40824;45.116;21.296;2022-11-20T10:09:29;71.95;;;27.70;;
54921;SDS011;40824;45.116;21.296;2022-11-20T10:12:04;63.40;;;23.85;;
54921;SDS011;40824;45.116;21.296;2022-11-20T10:17:17;29.38;;;13.32;;
54921;SDS011;40824;45.116;21.296;2022-11-20T10:25:15;88.05;;;38.78;;
54921;SDS011;40824;45.116;21.296;2022-11-20T10:28:06;81.25;;;36.20;;
54921;SDS011;40824;45.116;21.296;2022-11-20T10:30:27;42.80;;;22.15;;
54921;SDS011;40824;45.116;21.296;2022-11-20T10:32:57;14.93;;;9.05;;
54921;SDS011;40824;45.116;21.296;2022-11-20T10:35:27;35.72;;;18.25;;
54921;SDS011;40824;45.116;21.296;2022-11-20T10:37:56;22.83;;;12.90;;
54921;SDS011;40824;45.116;21.296;2022-11-20T10:40:45;19.35;;;12.02;;
54921;SDS011;40824;45.116;21.296;2022-11-20T10:43:13;26.77;;;11.60;;
54921;SDS011;40824;45.116;21.296;2022-11-20T10:45:47;89.03;;;25.95;;
54921;SDS011;40824;45.116;21.296;2022-11-20T10:48:16;84.50;;;23.73;;
54921;SDS011;40824;45.116;21.296;2022-11-20T10:50:57;72.32;;;23.00;;
54921;SDS011;40824;45.116;21.296;2022-11-20T10:53:37;23.70;;;10.52;;
54921;SDS011;40824;45.116;21.296;2022-11-20T10:56:05;13.90;;;8.57;;
54921;SDS011;40824;45.116;21.296;2022-11-20T11:01:20;10.40;;;7.63;;
54921;SDS011;40824;45.116;21.296;2022-11-20T11:03:49;9.68;;;7.40;;
54921;SDS011;40824;45.116;21.296;2022-11-20T11:09:02;8.50;;;7.20;;
54921;SDS011;40824;45.116;21.296;2022-11-20T11:11:30;11.35;;;7.15;;
54921;SDS011;40824;45.116;21.296;2022-11-20T11:14:16;7.57;;;5.90;;
54921;SDS011;40824;45.116;21.296;2022-11-20T11:16:49;10.68;;;7.22;;
54921;SDS011;40824;45.116;21.296;2022-11-20T11:19:16;31.55;;;20.27;;
54921;SDS011;40824;45.116;21.296;2022-11-20T11:21:49;24.63;;;17.67;;
54921;SDS011;40824;45.116;21.296;2022-11-20T11:24:20;28.00;;;25.00;;
54921;SDS011;40824;45.116;21.296;2022-11-20T11:27:20;10.98;;;8.63;;
54921;SDS011;40824;45.116;21.296;2022-11-20T11:29:42;19.17;;;13.57;;
54921;SDS011;40824;45.116;21.296;2022-11-20T11:32:12;22.40;;;17.17;;
54921;SDS011;40824;45.116;21.296;2022-11-20T11:34:38;40.28;;;35.33;;
54921;SDS011;40824;45.116;21.296;2022-11-20T11:37:04;97.70;;;73.90;;
54921;SDS011;40824;45.116;21.296;2022-11-20T11:39:39;35.63;;;29.40;;
54921;SDS011;40824;45.116;21.296;2022-11-20T11:42:18;41.13;;;31.27;;
54921;SDS011;40824;45.116;21.296;2022-11-20T11:44:45;19.88;;;15.80;;
54921;SDS011;40824;45.116;21.296;2022-11-20T11:47:36;13.70;;;10.60;;
54921;SDS011;40824;45.116;21.296;2022-11-20T11:50:08;14.18;;;10.52;;
54921;SDS011;40824;45.116;21.296;2022-11-20T11:55:10;17.85;;;13.07;;
54921;SDS011;40824;45.116;21.296;2022-11-20T11:58:02;21.83;;;15.95;;
54921;SDS011;40824;45.116;21.296;2022-11-20T12:00:25;13.43;;;9.45;;
54921;SDS011;40824;45.116;21.296;2022-11-20T12:05:38;15.57;;;10.70;;
54921;SDS011;40824;45.116;21.296;2022-11-20T12:09:10;16.27;;;12.02;;
54921;SDS011;40824;45.116;21.296;2022-11-20T12:11:39;26.55;;;17.67;;
54921;SDS011;40824;45.116;21.296;2022-11-20T12:16:36;30.60;;;17.60;;
54921;SDS011;40824;45.116;21.296;2022-11-20T12:19:04;21.95;;;15.07;;
54921;SDS011;40824;45.116;21.296;2022-11-20T12:21:36;37.67;;;22.05;;
54921;SDS011;40824;45.116;21.296;2022-11-20T12:29:39;26.55;;;17.40;;
54921;SDS011;40824;45.116;21.296;2022-11-20T12:37:33;18.52;;;15.00;;
54921;SDS011;40824;45.116;21.296;2022-11-20T12:40:15;10.75;;;8.77;;
54921;SDS011;40824;45.116;21.296;2022-11-20T12:42:49;10.00;;;8.45;;
54921;SDS011;40824;45.116;21.296;2022-11-20T12:45:42;12.25;;;9.48;;
54921;SDS011;40824;45.116;21.296;2022-11-20T12:48:16;13.15;;;10.80;;
54921;SDS011;40824;45.116;21.296;2022-11-20T12:58:43;14.98;;;11.95;;
54921;SDS011;40824;45.116;21.296;2022-11-20T13:01:24;12.98;;;10.27;;
54921;SDS011;40824;45.116;21.296;2022-11-20T13:06:50;13.13;;;10.65;;
54921;SDS011;40824;45.116;21.296;2022-11-20T13:09:17;15.40;;;11.93;;
54921;SDS011;40824;45.116;21.296;2022-11-20T13:19:24;11.68;;;9.55;;
54921;SDS011;40824;45.116;21.296;2022-11-20T13:21:50;9.48;;;8.48;;
54921;SDS011;40824;45.116;21.296;2022-11-20T13:29:30;12.77;;;10.02;;
54921;SDS011;40824;45.116;21.296;2022-11-20T13:32:06;13.80;;;11.43;;
54921;SDS011;40824;45.116;21.296;2022-11-20T13:34:33;15.27;;;13.02;;
54921;SDS011;40824;45.116;21.296;2022-11-20T13:37:01;14.27;;;11.80;;
54921;SDS011;40824;45.116;21.296;2022-11-20T13:39:32;14.50;;;11.07;;
54921;SDS011;40824;45.116;21.296;2022-11-20T13:41:59;17.60;;;12.57;;
54921;SDS011;40824;45.116;21.296;2022-11-20T13:44:29;15.73;;;13.00;;
54921;SDS011;40824;45.116;21.296;2022-11-20T13:46:55;15.00;;;12.27;;
54921;SDS011;40824;45.116;21.296;2022-11-20T13:49:37;15.45;;;13.07;;
54921;SDS011;40824;45.116;21.296;2022-11-20T13:52:14;15.18;;;11.18;;
54921;SDS011;40824;45.116;21.296;2022-11-20T13:57:45;16.70;;;11.90;;
54921;SDS011;40824;45.116;21.296;2022-11-20T14:00:17;14.38;;;10.95;;
54921;SDS011;40824;45.116;21.296;2022-11-20T14:02:44;16.42;;;13.25;;
54921;SDS011;40824;45.116;21.296;2022-11-20T14:05:21;16.92;;;14.15;;
54921;SDS011;40824;45.116;21.296;2022-11-20T14:07:48;17.33;;;14.88;;
54921;SDS011;40824;45.116;21.296;2022-11-20T14:10:25;18.08;;;12.13;;
54921;SDS011;40824;45.116;21.296;2022-11-20T14:12:51;13.75;;;10.77;;
54921;SDS011;40824;45.116;21.296;2022-11-20T14:15:24;21.98;;;19.67;;
54921;SDS011;40824;45.116;21.296;2022-11-20T14:17:53;22.98;;;18.52;;
54921;SDS011;40824;45.116;21.296;2022-11-20T14:20:19;16.20;;;13.75;;
54921;SDS011;40824;45.116;21.296;2022-11-20T14:22:51;14.68;;;12.07;;
54921;SDS011;40824;45.116;21.296;2022-11-20T14:25:19;14.25;;;11.93;;
54921;SDS011;40824;45.116;21.296;2022-11-20T14:27:52;15.38;;;11.90;;
54921;SDS011;40824;45.116;21.296;2022-11-20T14:30:20;15.45;;;12.20;;
54921;SDS011;40824;45.116;21.296;2022-11-20T14:32:47;42.45;;;32.78;;
54921;SDS011;40824;45.116;21.296;2022-11-20T14:35:23;14.95;;;12.77;;
54921;SDS011;40824;45.116;21.296;2022-11-20T14:37:50;11.40;;;9.93;;
54921;SDS011;40824;45.116;21.296;2022-11-20T14:42:48;59.38;;;53.50;;
54921;SDS011;40824;45.116;21.296;2022-11-20T14:45:14;18.02;;;15.27;;
54921;SDS011;40824;45.116;21.296;2022-11-20T14:47:40;20.58;;;18.52;;
54921;SDS011;40824;45.116;21.296;2022-11-20T14:50:14;23.02;;;20.67;;
54921;SDS011;40824;45.116;21.296;2022-11-20T14:52:57;17.63;;;15.65;;
54921;SDS011;40824;45.116;21.296;2022-11-20T14:58:00;19.80;;;15.18;;
54921;SDS011;40824;45.116;21.296;2022-11-20T15:00:27;19.70;;;15.70;;
54921;SDS011;40824;45.116;21.296;2022-11-20T15:02:53;16.13;;;11.98;;
54921;SDS011;40824;45.116;21.296;2022-11-20T15:05:21;19.65;;;14.80;;
54921;SDS011;40824;45.116;21.296;2022-11-20T15:07:49;16.48;;;12.05;;
54921;SDS011;40824;45.116;21.296;2022-11-20T15:10:23;25.20;;;16.85;;
54921;SDS011;40824;45.116;21.296;2022-11-20T15:12:59;31.52;;;25.88;;
54921;SDS011;40824;45.116;21.296;2022-11-20T15:18:16;24.17;;;18.58;;
54921;SDS011;40824;45.116;21.296;2022-11-20T15:20:42;17.27;;;13.25;;
54921;SDS011;40824;45.116;21.296;2022-11-20T15:23:12;15.15;;;12.93;;
54921;SDS011;40824;45.116;21.296;2022-11-20T15:25:39;19.42;;;16.92;;
54921;SDS011;40824;45.116;21.296;2022-11-20T15:28:13;16.00;;;14.05;;
54921;SDS011;40824;45.116;21.296;2022-11-20T15:30:39;19.55;;;15.68;;
54921;SDS011;40824;45.116;21.296;2022-11-20T15:33:07;18.15;;;14.80;;
54921;SDS011;40824;45.116;21.296;2022-11-20T15:35:34;18.95;;;14.30;;
54921;SDS011;40824;45.116;21.296;2022-11-20T15:38:00;20.10;;;14.93;;
54921;SDS011;40824;45.116;21.296;2022-11-20T15:40:28;16.13;;;13.75;;
54921;SDS011;40824;45.116;21.296;2022-11-20T15:42:55;13.10;;;11.63;;
54921;SDS011;40824;45.116;21.296;2022-11-20T15:45:33;12.45;;;10.30;;
54921;SDS011;40824;45.116;21.296;2022-11-20T15:48:00;14.52;;;12.57;;
54921;SDS011;40824;45.116;21.296;2022-11-20T15:50:27;16.55;;;13.30;;
54921;SDS011;40824;45.116;21.296;2022-11-20T15:52:55;21.65;;;16.80;;
54921;SDS011;40824;45.116;21.296;2022-11-20T15:55:21;20.85;;;13.90;;
54921;SDS011;40824;45.116;21.296;2022-11-20T15:57:47;19.70;;;17.58;;
54921;SDS011;40824;45.116;21.296;2022-11-20T16:00:14;30.13;;;25.90;;